Time;durP1;ratioP1;P1;durP2;ratioP2;P2;SDS_P1;SDS_P2;PMS_P1;PMS_P2;Temp;Humidity;BMP_temperature;BMP_pressure;BME280_temperature;BME280_humidity;BME280_pressure;Samples;Min_cycle;Max_cycle;Signal;HPM_P1;HPM_P2
2021/04/04 00:01:18;;;;;;;0.88;0.80;;;;;;;4.63;54.05;101829.81;4885024;29;20047;-70
2021/04/04 00:03:44;;;;;;;0.40;0.40;;;;;;;4.61;54.98;101831.84;4889316;29;20017;-73
2021/04/04 00:06:09;;;;;;;2.53;0.70;;;;;;;4.59;54.88;101833.91;4857646;29;20550;-72
2021/04/04 00:08:35;;;;;;;1.30;0.70;;;;;;;4.57;53.99;101836.00;4877330;29;20044;-72
2021/04/04 00:11:00;;;;;;;0.73;0.60;;;;;;;4.52;54.41;101822.16;4886560;29;20111;-71
2021/04/04 00:13:25;;;;;;;0.40;0.40;;;;;;;4.54;54.71;101825.50;4868315;29;20060;-73
2021/04/04 00:15:51;;;;;;;0.50;0.40;;;;;;;4.51;54.04;101825.91;4879913;29;20055;-71
2021/04/04 00:18:16;;;;;;;0.50;0.50;;;;;;;4.48;55.14;101821.72;4882075;29;20037;-69
2021/04/04 00:20:42;;;;;;;0.80;0.30;;;;;;;4.47;54.25;101820.03;4885427;29;20044;-71
2021/04/04 00:23:07;;;;;;;1.10;0.30;;;;;;;4.45;54.14;101815.84;4870746;29;20037;-71
2021/04/04 00:25:32;;;;;;;0.40;0.40;;;;;;;4.43;54.98;101817.91;4885941;29;20375;-72
2021/04/04 00:27:58;;;;;;;1.42;0.90;;;;;;;4.40;55.57;101813.69;4869704;29;20100;-71
2021/04/04 00:30:24;;;;;;;1.63;1.02;;;;;;;4.39;54.87;101812.00;4883873;29;20033;-72
2021/04/04 00:32:49;;;;;;;3.58;0.50;;;;;;;4.33;55.47;101808.19;4866050;29;20048;-74
2021/04/04 00:35:17;;;;;;;4.30;0.60;;;;;;;4.31;55.11;101802.16;4887186;29;20039;-72
2021/04/04 00:37:45;;;;;;;1.00;0.60;;;;;;;4.26;55.04;101801.84;4875450;29;20069;-72
2021/04/04 00:40:19;;;;;;;0.45;0.40;;;;;;;4.28;55.63;101794.41;4891416;29;20479;-74
2021/04/04 00:42:45;;;;;;;0.25;0.17;;;;;;;4.20;55.44;101780.97;4882159;29;20088;-73
2021/04/04 00:45:22;;;;;;;0.40;0.20;;;;;;;4.21;55.14;101788.06;4894282;29;20024;-73
2021/04/04 00:47:48;;;;;;;0.55;0.50;;;;;;;4.20;54.52;101786.38;4879587;29;20087;-72
2021/04/04 00:50:16;;;;;;;0.25;0.20;;;;;;;4.19;55.02;101785.56;4879105;29;20064;-73
2021/04/04 00:52:43;;;;;;;0.55;0.20;;;;;;;4.17;54.71;101786.75;4869502;29;20040;-73
2021/04/04 00:55:10;;;;;;;1.23;0.30;;;;;;;4.17;56.00;101792.19;4892135;29;20518;-71
2021/04/04 00:57:37;;;;;;;0.47;0.40;;;;;;;4.15;55.21;101797.78;4891535;29;20055;-71
2021/04/04 01:00:07;;;;;;;0.43;0.38;;;;;;;4.12;56.13;101789.22;4887688;29;20070;-72
2021/04/04 01:02:32;;;;;;;0.50;0.40;;;;;;;4.10;55.25;101785.84;4875417;29;20029;-73
2021/04/04 01:05:00;;;;;;;1.20;0.50;;;;;;;4.10;56.00;101781.25;4873008;29;20033;-72
2021/04/04 01:07:26;;;;;;;0.50;0.30;;;;;;;4.09;55.60;101773.34;4894452;29;20043;-72
2021/04/04 01:09:51;;;;;;;1.33;0.50;;;;;;;4.06;55.15;101773.72;4887848;29;20119;-73
2021/04/04 01:12:28;;;;;;;0.30;0.30;;;;;;;4.05;55.39;101766.63;4892433;29;20048;-73
2021/04/04 01:15:10;;;;;;;0.68;0.30;;;;;;;4.05;55.35;101766.63;4879393;29;20045;-73
2021/04/04 01:17:37;;;;;;;0.05;0.05;;;;;;;4.05;55.74;101762.06;4887350;29;20061;-73
2021/04/04 01:20:19;;;;;;;0.15;0.10;;;;;;;4.01;55.43;101761.56;4889194;29;20044;-73
2021/04/04 01:22:57;;;;;;;1.58;0.45;;;;;;;4.00;55.59;101757.22;4894511;29;20032;-71
2021/04/04 01:25:53;;;;;;;0.35;0.20;;;;;;;4.00;55.66;101759.06;4888271;29;20045;-73
2021/04/04 01:28:24;;;;;;;0.10;0.10;;;;;;;3.98;55.72;101755.72;4885590;29;20114;-72
2021/04/04 01:30:51;;;;;;;0.47;0.20;;;;;;;3.97;56.22;101759.44;4869778;29;20380;-73
2021/04/04 01:33:19;;;;;;;0.30;0.30;;;;;;;3.94;55.93;101754.41;4883455;29;20076;-74
2021/04/04 01:35:51;;;;;;;1.20;0.20;;;;;;;3.92;56.15;101751.91;4869050;29;20490;-73
2021/04/04 01:38:22;;;;;;;3.85;0.30;;;;;;;3.89;55.71;101746.03;4893238;29;20395;-75
2021/04/04 01:40:52;;;;;;;0.20;0.20;;;;;;;3.85;56.65;101740.16;4888512;29;20055;-74
2021/04/04 01:43:18;;;;;;;3.85;0.45;;;;;;;3.83;55.71;101747.63;4870780;29;20020;-74
2021/04/04 01:45:44;;;;;;;0.00;0.00;;;;;;;3.84;56.25;101744.72;4861140;29;20033;-75
2021/04/04 01:48:13;;;;;;;0.35;0.10;;;;;;;3.82;55.50;101745.94;4893415;29;20028;-74
2021/04/04 01:50:42;;;;;;;1.05;0.30;;;;;;;3.78;56.33;101744.63;4884645;29;20162;-75
2021/04/04 01:53:09;;;;;;;0.28;0.28;;;;;;;3.71;56.98;101738.31;4892593;29;20032;-74
2021/04/04 01:55:37;;;;;;;0.95;0.40;;;;;;;3.63;56.74;101740.06;4871153;29;20032;-75
2021/04/04 01:58:06;;;;;;;0.28;0.20;;;;;;;3.58;56.08;101739.81;4877756;29;20032;-75
2021/04/04 02:00:31;;;;;;;2.85;0.40;;;;;;;3.49;56.33;101740.94;4874510;29;20064;-74
2021/04/04 02:02:57;;;;;;;0.30;0.20;;;;;;;3.41;55.72;101741.84;4892274;29;20075;-75
2021/04/04 02:05:26;;;;;;;0.38;0.20;;;;;;;3.32;55.93;101732.16;4881641;29;20031;-75
2021/04/04 02:07:53;;;;;;;0.65;0.40;;;;;;;3.34;56.53;101740.09;4862210;29;20028;-75
2021/04/04 02:10:23;;;;;;;2.75;0.30;;;;;;;3.17;56.82;101732.16;4869587;29;20028;-75
2021/04/04 02:12:52;;;;;;;1.33;0.30;;;;;;;3.20;56.79;101741.75;4886073;29;20037;-74
2021/04/04 02:15:31;;;;;;;0.20;0.20;;;;;;;3.13;57.06;101736.25;4878759;29;20171;-75
2021/04/04 02:17:57;;;;;;;0.10;0.10;;;;;;;3.03;57.22;101728.41;4882100;29;20067;-76
2021/04/04 02:20:25;;;;;;;0.20;0.20;;;;;;;2.93;57.60;101714.31;4896167;29;20032;-75
2021/04/04 02:22:55;;;;;;;0.63;0.30;;;;;;;3.02;57.25;101728.59;4904100;29;20115;-75
2021/04/04 02:25:20;;;;;;;0.43;0.22;;;;;;;3.00;57.66;101719.84;4884494;29;20029;-74
2021/04/04 02:27:47;;;;;;;0.50;0.40;;;;;;;2.99;57.49;101718.16;4887460;29;20033;-75
2021/04/04 02:30:17;;;;;;;0.77;0.20;;;;;;;2.95;57.58;101712.28;4880358;29;20044;-74
2021/04/04 02:32:54;;;;;;;0.28;0.28;;;;;;;2.97;57.09;101721.88;4885974;29;20036;-74
2021/04/04 02:35:28;;;;;;;0.00;0.00;;;;;;;3.01;57.36;101729.59;4899633;29;20024;-73
2021/04/04 02:37:56;;;;;;;0.30;0.30;;;;;;;2.91;57.73;101710.97;4899966;29;20032;-75
2021/04/04 02:40:23;;;;;;;0.50;0.43;;;;;;;2.84;57.53;101724.34;4896647;29;20028;-74
2021/04/04 02:42:59;;;;;;;0.50;0.50;;;;;;;2.76;58.14;101719.03;4893501;29;20119;-75
2021/04/04 02:45:28;;;;;;;0.95;0.85;;;;;;;2.71;58.37;101722.28;4878520;29;20025;-75
2021/04/04 02:48:09;;;;;;;0.75;0.75;;;;;;;2.65;58.42;101716.78;4897804;29;20485;-74
2021/04/04 02:50:36;;;;;;;3.85;0.95;;;;;;;2.66;58.51;101734.63;4897023;29;20060;-75
2021/04/04 02:53:04;;;;;;;1.55;0.60;;;;;;;2.62;58.39;101729.59;4879124;29;20040;-75
2021/04/04 02:55:33;;;;;;;1.63;0.93;;;;;;;2.52;59.34;101720.91;4901840;29;20160;-74
2021/04/04 02:58:03;;;;;;;1.27;1.05;;;;;;;2.50;58.71;101725.66;4899530;29;20028;-75
2021/04/04 03:00:31;;;;;;;1.52;0.98;;;;;;;2.45;58.96;101725.34;4886182;29;20527;-74
2021/04/04 03:03:00;;;;;;;1.55;0.90;;;;;;;2.36;59.14;101718.34;4877958;29;20059;-74
2021/04/04 03:05:26;;;;;;;1.17;1.08;;;;;;;2.33;59.05;101718.72;4891988;29;20029;-73
2021/04/04 03:07:55;;;;;;;0.40;0.35;;;;;;;2.27;58.92;101714.88;4892380;29;20108;-75
2021/04/04 03:10:20;;;;;;;1.20;0.30;;;;;;;2.24;59.07;101716.06;4882201;29;20029;-74
2021/04/04 03:12:49;;;;;;;0.90;0.70;;;;;;;2.22;59.68;101717.25;4873838;29;20029;-73
2021/04/04 03:15:18;;;;;;;3.10;1.20;;;;;;;2.19;60.35;101706.81;4886481;29;20040;-75
2021/04/04 03:17:46;;;;;;;4.18;1.00;;;;;;;2.21;59.87;101727.22;4872419;29;20029;-74
2021/04/04 03:20:13;;;;;;;1.52;1.00;;;;;;;2.20;60.15;101725.53;4891305;29;21288;-74
2021/04/04 03:22:42;;;;;;;2.38;0.88;;;;;;;2.19;60.47;101723.88;4899465;29;20111;-73
2021/04/04 03:25:09;;;;;;;1.15;1.05;;;;;;;2.18;60.48;101708.69;4877162;29;20060;-72
2021/04/04 03:27:44;;;;;;;2.67;1.23;;;;;;;2.17;60.70;101712.38;4896863;29;20021;-73
2021/04/04 03:30:57;;;;;;;2.15;1.27;;;;;;;2.15;60.49;101714.44;4863518;29;20047;-73
2021/04/04 03:32:59;;;;;;;0.40;0.40;;;;;;;2.15;61.16;101714.44;4888279;29;21054;-72
2021/04/04 03:35:27;;;;;;;0.47;0.47;;;;;;;2.17;60.59;101707.00;4888156;29;20444;-72
2021/04/04 03:37:54;;;;;;;1.08;0.63;;;;;;;2.21;60.44;101708.31;4877133;29;20028;-73
2021/04/04 03:40:20;;;;;;;1.33;0.82;;;;;;;2.19;61.09;101699.56;4875097;29;20059;-72
2021/04/04 03:42:47;;;;;;;1.20;0.95;;;;;;;2.24;61.21;101705.25;4893011;29;20045;-71
2021/04/04 03:45:14;;;;;;;1.33;1.15;;;;;;;2.20;61.98;101695.84;4870872;29;20029;-73
2021/04/04 03:47:41;;;;;;;1.10;1.00;;;;;;;2.25;61.73;101701.53;4888405;29;20032;-72
2021/04/04 03:50:09;;;;;;;2.33;1.60;;;;;;;2.23;61.25;101697.34;4893147;29;20566;-73
2021/04/04 03:52:35;;;;;;;6.28;1.35;;;;;;;2.21;62.06;101688.59;4880815;29;20029;-72
2021/04/04 03:55:01;;;;;;;1.13;1.02;;;;;;;2.22;62.45;101698.34;4859567;29;20483;-73
2021/04/04 03:57:28;;;;;;;0.57;0.50;;;;;;;2.18;61.97;101700.59;4876584;29;20134;-73
2021/04/04 03:59:54;;;;;;;0.47;0.35;;;;;;;2.17;61.30;101696.19;4888981;29;20644;-72
2021/04/04 04:02:23;;;;;;;0.93;0.63;;;;;;;2.10;61.21;101692.53;4886167;29;20032;-73
2021/04/04 04:04:50;;;;;;;0.47;0.43;;;;;;;2.11;62.03;101699.63;4878449;29;20028;-72
2021/04/04 04:07:16;;;;;;;5.15;0.52;;;;;;;2.12;61.73;101698.59;4876605;29;20053;-74
2021/04/04 04:09:42;;;;;;;0.55;0.55;;;;;;;2.12;61.20;101709.41;4873931;29;20033;-74
2021/04/04 04:12:08;;;;;;;0.70;0.32;;;;;;;2.13;61.23;101708.34;4871988;29;20037;-73
2021/04/04 04:14:36;;;;;;;0.35;0.35;;;;;;;2.10;61.15;101703.31;4843456;29;20479;-73
2021/04/04 04:17:05;;;;;;;0.25;0.25;;;;;;;2.05;61.63;101705.72;4877656;29;21137;-73
2021/04/04 04:19:31;;;;;;;0.20;0.20;;;;;;;2.03;61.45;101707.75;4875732;29;20031;-72
2021/04/04 04:21:57;;;;;;;1.55;0.40;;;;;;;1.95;61.18;101694.31;4890858;29;20135;-74
2021/04/04 04:24:24;;;;;;;0.80;0.63;;;;;;;1.91;61.22;101705.47;4888505;29;20047;-73
2021/04/04 04:26:50;;;;;;;2.15;0.88;;;;;;;1.84;61.64;101691.03;4889990;29;20115;-73
2021/04/04 04:29:19;;;;;;;1.23;0.95;;;;;;;1.82;62.14;101701.13;4892412;29;20470;-74
2021/04/04 04:31:47;;;;;;;0.68;0.68;;;;;;;1.78;62.03;101698.97;4884954;29;20048;-73
2021/04/04 04:34:14;;;;;;;1.00;0.45;;;;;;;1.73;61.45;101694.09;4889271;29;20036;-73
2021/04/04 04:36:41;;;;;;;0.55;0.55;;;;;;;1.70;61.51;101697.16;4876514;29;20391;-74
2021/04/04 04:39:11;;;;;;;2.00;1.27;;;;;;;1.66;62.75;101695.81;4889044;29;20044;-73
2021/04/04 04:41:42;;;;;;;1.80;1.10;;;;;;;1.60;62.79;101701.94;4884301;29;20119;-73
2021/04/04 04:44:11;;;;;;;3.63;1.30;;;;;;;1.48;62.37;101683.44;4889547;29;20064;-75
2021/04/04 04:46:37;;;;;;;3.05;1.15;;;;;;;1.50;63.25;101692.16;4876902;29;20371;-73
2021/04/04 04:49:08;;;;;;;1.13;0.80;;;;;;;1.44;62.99;101692.88;4858044;29;20036;-73
2021/04/04 04:51:34;;;;;;;1.92;1.00;;;;;;;1.44;62.79;101698.28;4883600;29;20028;-73
2021/04/04 04:54:00;;;;;;;3.00;0.73;;;;;;;1.46;62.60;101701.66;4857598;29;20028;-73
2021/04/04 04:56:26;;;;;;;3.63;0.55;;;;;;;1.44;63.37;101687.47;4892266;29;20033;-73
2021/04/04 04:58:52;;;;;;;0.70;0.70;;;;;;;1.44;62.94;101692.88;4851076;29;20411;-71
2021/04/04 05:01:23;;;;;;;5.57;0.63;;;;;;;1.44;62.99;101698.28;4874976;29;20116;-71
2021/04/04 05:03:49;;;;;;;0.63;0.63;;;;;;;1.42;62.87;101688.66;4870501;29;20097;-72
2021/04/04 05:06:15;;;;;;;0.40;0.28;;;;;;;1.45;62.63;101694.56;4873094;29;20029;-73
2021/04/04 05:08:43;;;;;;;0.52;0.50;;;;;;;1.41;63.34;101687.00;4893212;29;20612;-74
2021/04/04 05:11:12;;;;;;;0.88;0.80;;;;;;;1.42;63.35;101688.66;4897442;29;20036;-72
2021/04/04 05:13:39;;;;;;;0.43;0.40;;;;;;;1.37;62.49;101691.88;4883168;29;20111;-73
2021/04/04 05:16:13;;;;;;;2.92;0.60;;;;;;;1.29;62.57;101695.47;4878834;29;20348;-73
2021/04/04 05:18:49;;;;;;;1.15;0.60;;;;;;;1.28;62.70;101698.34;4860328;29;20060;-73
2021/04/04 05:21:28;;;;;;;0.47;0.32;;;;;;;1.31;63.54;101690.72;4882816;29;20450;-74
2021/04/04 05:23:58;;;;;;;0.40;0.40;;;;;;;1.27;62.86;101685.88;4865941;29;20388;-74
2021/04/04 05:26:29;;;;;;;0.40;0.40;;;;;;;1.27;63.16;101688.56;4884862;29;20120;-72
2021/04/04 05:28:55;;;;;;;0.40;0.40;;;;;;;1.22;62.92;101684.53;4877328;29;20029;-73
2021/04/04 05:31:21;;;;;;;3.58;0.60;;;;;;;1.19;62.98;101695.66;4892980;29;20040;-74
2021/04/04 05:33:47;;;;;;;0.30;0.30;;;;;;;1.17;63.08;101691.47;4855667;29;20076;-74
2021/04/04 05:36:13;;;;;;;2.15;0.63;;;;;;;1.12;62.72;101689.28;4869975;29;20029;-72
2021/04/04 05:38:38;;;;;;;0.80;0.57;;;;;;;1.09;63.35;101695.00;4876086;29;20036;-74
2021/04/04 05:41:16;;;;;;;0.80;0.43;;;;;;;1.07;63.40;101691.66;4873668;29;20436;-73
2021/04/04 05:43:50;;;;;;;1.17;0.60;;;;;;;1.07;63.22;101686.25;4890287;29;20435;-74
2021/04/04 05:46:34;;;;;;;0.98;0.98;;;;;;;1.01;63.26;101674.31;4892128;29;20068;-74
2021/04/04 05:49:11;;;;;;;0.52;0.52;;;;;;;1.10;63.63;101691.31;4889894;29;20036;-74
2021/04/04 05:51:58;;;;;;;3.95;0.88;;;;;;;1.14;62.78;101689.94;4888152;29;20048;-73
2021/04/04 05:55:02;;;;;;;0.32;0.30;;;;;;;1.18;63.51;101691.28;4889207;29;20028;-74
2021/04/04 05:57:37;;;;;;;0.30;0.30;;;;;;;1.14;62.82;101676.47;4882066;29;20035;-74
2021/04/04 06:00:08;;;;;;;0.50;0.50;;;;;;;1.18;62.93;101672.44;4887631;29;20040;-74
2021/04/04 06:02:52;;;;;;;0.32;0.30;;;;;;;1.30;63.55;101680.13;4885840;29;20119;-74
2021/04/04 06:05:36;;;;;;;1.13;0.45;;;;;;;1.30;63.62;101680.13;4892034;29;20029;-75
2021/04/04 06:08:13;;;;;;;1.92;0.57;;;;;;;1.33;63.09;101687.84;4884296;29;20033;-74
2021/04/04 06:10:50;;;;;;;0.77;0.75;;;;;;;1.37;63.03;101681.09;4886146;29;20594;-73
2021/04/04 06:13:31;;;;;;;1.80;1.05;;;;;;;1.38;63.97;101683.63;4879724;29;20024;-74
2021/04/04 06:16:18;;;;;;;1.55;1.13;;;;;;;1.42;63.72;101684.13;4883717;29;20048;-74
2021/04/04 06:19:27;;;;;;;3.05;1.52;;;;;;;1.41;64.64;101666.28;4890026;29;20032;-74
2021/04/04 06:22:28;;;;;;;3.05;1.48;;;;;;;1.50;64.01;101680.56;4892325;29;20056;-73
2021/04/04 06:25:02;;;;;;;2.17;1.45;;;;;;;1.49;65.25;101679.72;4893207;29;20220;-75
2021/04/04 06:27:53;;;;;;;2.13;1.60;;;;;;;1.62;64.18;101697.19;4876087;29;20025;-74
2021/04/04 06:30:46;;;;;;;1.15;0.80;;;;;;;1.67;64.47;101697.50;4882169;29;20025;-75
2021/04/04 06:33:26;;;;;;;2.90;1.10;;;;;;;1.72;64.34;101695.09;4874080;29;20134;-73
2021/04/04 06:36:03;;;;;;;1.90;1.52;;;;;;;1.85;65.49;101700.75;4883447;29;20120;-73
2021/04/04 06:38:35;;;;;;;2.80;1.83;;;;;;;1.94;65.71;101698.03;4883233;29;20024;-71
2021/04/04 06:41:22;;;;;;;9.77;2.92;;;;;;;2.00;65.78;101700.00;4888503;29;20038;-71
2021/04/04 06:44:01;;;;;;;4.40;2.72;;;;;;;2.09;66.20;101701.66;4881910;29;20032;-70
2021/04/04 06:46:40;;;;;;;4.75;1.92;;;;;;;2.19;66.13;101696.88;4880877;29;20103;-71
2021/04/04 06:49:25;;;;;;;1.77;1.52;;;;;;;2.29;65.09;101688.50;4889309;29;20053;-72
2021/04/04 06:51:51;;;;;;;3.95;2.03;;;;;;;2.41;66.27;101688.94;4893935;29;20028;-73
2021/04/04 06:54:38;;;;;;;4.38;1.52;;;;;;;2.53;65.48;101690.19;4883565;29;20035;-71
2021/04/04 06:57:28;;;;;;;3.58;1.63;;;;;;;2.66;65.03;101691.44;4887682;29;20065;-73
2021/04/04 07:00:05;;;;;;;9.77;2.25;;;;;;;2.77;65.79;101682.88;4887779;29;20042;-72
2021/04/04 07:02:40;;;;;;;6.50;2.95;;;;;;;2.87;65.64;101682.63;4885343;29;20124;-72
2021/04/04 07:05:10;;;;;;;3.10;1.90;;;;;;;2.97;65.70;101683.22;4897618;29;20099;-71
2021/04/04 07:08:13;;;;;;;6.30;2.22;;;;;;;3.08;65.22;101679.19;4898393;29;20056;-73
2021/04/04 07:10:51;;;;;;;4.43;2.80;;;;;;;3.15;65.49;101672.03;4907825;29;20096;-71
2021/04/04 07:13:55;;;;;;;3.30;2.00;;;;;;;3.28;66.51;101672.19;4887098;29;20761;-72
2021/04/04 07:16:58;;;;;;;1.70;1.60;;;;;;;3.42;65.12;101669.69;4889055;29;20179;-71
2021/04/04 07:20:01;;;;;;;4.43;2.20;;;;;;;3.58;64.89;101679.47;4889632;29;20107;-71
2021/04/04 07:22:53;;;;;;;4.10;1.45;;;;;;;3.73;65.33;101687.56;4891033;29;20049;-70
2021/04/04 07:25:24;;;;;;;3.75;2.05;;;;;;;3.88;66.05;101680.22;4874096;29;20112;-71
2021/04/04 07:27:55;;;;;;;5.45;2.30;;;;;;;4.00;65.72;101683.28;4882424;29;20039;-71
2021/04/04 07:30:35;;;;;;;9.20;2.95;;;;;;;4.11;64.85;101684.66;4878010;29;20424;-71
2021/04/04 07:34:02;;;;;;;2.55;2.13;;;;;;;4.27;64.41;101684.41;4884381;29;20029;-72
2021/04/04 07:36:43;;;;;;;5.07;3.10;;;;;;;4.33;65.17;101678.19;4819485;29;20056;-70
2021/04/04 07:39:23;;;;;;;7.57;2.55;;;;;;;4.44;65.30;101678.72;4889218;29;20028;-70
2021/04/04 07:42:23;;;;;;;8.77;2.55;;;;;;;4.60;64.87;101667.63;4878983;29;20483;-71
2021/04/04 07:45:01;;;;;;;9.73;1.88;;;;;;;4.71;64.84;101653.50;4889183;29;20040;-73
2021/04/04 07:47:36;;;;;;;8.38;2.20;;;;;;;4.91;63.99;101655.53;4870857;29;20058;-75
2021/04/04 07:50:08;;;;;;;2.33;2.08;;;;;;;5.05;63.75;101654.59;4887439;29;20028;-75
2021/04/04 07:52:40;;;;;;;9.30;2.00;;;;;;;5.20;64.10;101653.66;4893361;29;20028;-76
2021/04/04 07:55:10;;;;;;;1.60;1.50;;;;;;;5.40;63.76;101664.56;4887789;29;20445;-76
2021/04/04 07:57:43;;;;;;;8.10;2.30;;;;;;;5.56;63.49;101663.41;4894088;29;20060;-76
2021/04/04 08:00:10;;;;;;;4.38;1.90;;;;;;;5.69;63.00;101654.47;4894191;29;20033;-75
2021/04/04 08:03:03;;;;;;;5.57;1.77;;;;;;;5.90;63.02;101650.81;4854256;29;20467;-73
2021/04/04 08:05:31;;;;;;;2.72;2.42;;;;;;;6.11;62.13;101647.94;4874972;29;20103;-73
2021/04/04 08:08:11;;;;;;;5.18;2.58;;;;;;;6.26;61.86;101650.47;4882056;29;20049;-73
2021/04/04 08:10:51;;;;;;;5.63;1.60;;;;;;;6.38;61.95;101650.69;4888153;29;20045;-74
2021/04/04 08:13:27;;;;;;;3.60;1.50;;;;;;;6.61;61.46;101654.88;4888248;29;20033;-74
2021/04/04 08:16:08;;;;;;;1.85;1.27;;;;;;;6.90;61.28;101639.16;4896905;29;20216;-75
2021/04/04 08:18:35;;;;;;;7.75;1.42;;;;;;;7.30;60.93;101639.06;4885101;29;20029;-75
2021/04/04 08:21:08;;;;;;;2.50;0.77;;;;;;;7.93;60.37;101642.94;4869948;29;20021;-75
2021/04/04 08:23:43;;;;;;;5.78;1.20;;;;;;;8.69;60.00;101649.38;4891651;29;20044;-77
2021/04/04 08:26:27;;;;;;;5.03;1.63;;;;;;;9.42;59.12;101651.31;4877565;29;20497;-74
2021/04/04 08:29:01;;;;;;;7.90;1.58;;;;;;;10.31;58.50;101653.47;4866339;29;20021;-76
2021/04/04 08:31:32;;;;;;;1.25;1.00;;;;;;;11.21;57.33;101645.22;4867850;29;20028;-74
2021/04/04 08:34:04;;;;;;;4.50;1.30;;;;;;;12.09;56.36;101647.81;4884965;29;20029;-74
2021/04/04 08:36:32;;;;;;;4.78;0.93;;;;;;;12.93;55.67;101644.25;4882966;29;20039;-74
2021/04/04 08:39:00;;;;;;;1.63;0.77;;;;;;;13.70;53.43;101643.63;4874051;29;20079;-76
2021/04/04 08:41:29;;;;;;;4.07;1.05;;;;;;;14.32;50.25;101650.56;4882767;29;20400;-75
2021/04/04 08:44:03;;;;;;;3.22;1.40;;;;;;;14.75;47.58;101648.78;4870281;29;20029;-74
2021/04/04 08:46:32;;;;;;;1.77;0.85;;;;;;;15.12;46.68;101655.34;4886647;29;20043;-75
2021/04/04 08:48:58;;;;;;;4.43;1.77;;;;;;;15.78;46.87;101652.06;4888716;29;20029;-76
2021/04/04 08:51:27;;;;;;;1.92;0.90;;;;;;;16.53;46.06;101657.16;4853901;29;20056;-75
2021/04/04 08:53:55;;;;;;;6.13;0.60;;;;;;;17.22;44.11;101651.28;4879562;29;20032;-75
2021/04/04 08:56:22;;;;;;;1.38;0.80;;;;;;;17.78;42.75;101645.50;4879575;29;20032;-77
2021/04/04 08:58:52;;;;;;;6.50;1.02;;;;;;;18.40;41.93;101653.44;4889187;29;20032;-75
2021/04/04 09:01:27;;;;;;;1.23;0.70;;;;;;;18.92;40.61;101642.72;4892018;29;20145;-77
2021/04/04 09:04:02;;;;;;;11.27;2.03;;;;;;;19.44;38.13;101647.69;4879073;29;20032;-82
2021/04/04 09:06:52;;;;;;;2.50;1.10;;;;;;;19.92;36.80;101642.09;4878360;29;20032;-78
2021/04/04 09:09:35;;;;;;;3.83;1.30;;;;;;;20.33;35.23;101630.34;4873020;29;20037;-74
2021/04/04 09:12:01;;;;;;;1.98;1.00;;;;;;;20.54;34.59;101630.81;4859690;29;20037;-74
2021/04/04 09:14:39;;;;;;;0.55;0.50;;;;;;;21.14;35.94;101626.41;4886045;29;20531;-75
2021/04/04 09:17:13;;;;;;;0.95;0.60;;;;;;;21.76;34.76;101633.50;4882860;29;20479;-76
2021/04/04 09:19:45;;;;;;;0.70;0.55;;;;;;;22.26;34.14;101627.03;4886891;29;20128;-74
2021/04/04 09:22:21;;;;;;;5.95;1.70;;;;;;;22.54;31.71;101627.72;4893888;29;20172;-75
2021/04/04 09:24:48;;;;;;;2.85;1.45;;;;;;;22.28;28.90;101619.16;4877602;29;20059;-74
2021/04/04 09:27:17;;;;;;;4.45;2.47;;;;;;;21.73;27.79;101609.88;4878216;29;20030;-73
2021/04/04 09:29:54;;;;;;;2.40;2.10;;;;;;;21.27;28.18;101608.91;4852923;29;20108;-75
2021/04/04 09:32:38;;;;;;;2.08;1.00;;;;;;;21.33;30.83;101611.56;4870064;29;20031;-72
2021/04/04 09:35:12;;;;;;;0.98;0.75;;;;;;;22.10;31.63;101613.47;4884388;29;20028;-73
2021/04/04 09:37:38;;;;;;;3.03;2.22;;;;;;;22.71;29.18;101606.69;4881436;29;20072;-73
2021/04/04 09:40:05;;;;;;;2.78;1.40;;;;;;;22.91;28.89;101603.34;4884123;29;20040;-74
2021/04/04 09:42:33;;;;;;;1.58;0.95;;;;;;;23.56;29.44;101605.69;4881578;29;20032;-72
2021/04/04 09:45:19;;;;;;;5.50;2.22;;;;;;;24.10;26.84;101613.78;4883015;29;20036;-75
2021/04/04 09:47:48;;;;;;;1.77;0.90;;;;;;;24.45;28.44;101608.97;4890387;29;20047;-75
2021/04/04 09:50:29;;;;;;;3.00;1.83;;;;;;;24.86;25.55;101596.34;4875523;29;20040;-75
2021/04/04 09:53:00;;;;;;;3.28;1.20;;;;;;;25.18;26.97;101596.88;4882537;29;20044;-78
2021/04/04 09:55:27;;;;;;;2.80;1.00;;;;;;;25.65;26.68;101597.94;4855431;29;20387;-75
2021/04/04 09:57:59;;;;;;;6.18;1.80;;;;;;;25.80;23.47;101594.50;4886020;29;20032;-77
2021/04/04 10:00:36;;;;;;;8.13;3.03;;;;;;;25.07;21.77;101590.84;4850054;29;20068;-75
2021/04/04 10:03:15;;;;;;;8.32;2.30;;;;;;;24.09;22.89;101585.00;4869599;29;20028;-73
2021/04/04 10:05:45;;;;;;;5.03;2.42;;;;;;;23.27;23.84;101587.56;4885563;29;20040;-72
2021/04/04 10:08:29;;;;;;;1.98;1.42;;;;;;;23.46;26.12;101584.47;4879660;29;20128;-73
2021/04/04 10:10:57;;;;;;;4.32;1.60;;;;;;;24.43;25.13;101585.28;4887151;29;20452;-78
2021/04/04 10:13:30;;;;;;;3.17;1.63;;;;;;;25.13;24.58;101573.84;4888629;29;20044;-78
2021/04/04 10:15:57;;;;;;;2.63;1.85;;;;;;;25.45;23.72;101577.97;4862922;29;20447;-79
2021/04/04 10:18:31;;;;;;;1.55;1.17;;;;;;;26.00;24.65;101575.25;4891635;29;20072;-79
2021/04/04 10:20:59;;;;;;;6.78;1.80;;;;;;;26.59;22.48;101574.97;4898241;29;20067;-78
2021/04/04 10:23:33;;;;;;;3.80;1.13;;;;;;;27.23;23.52;101569.84;4898115;29;20040;-79
2021/04/04 10:26:07;;;;;;;7.60;2.28;;;;;;;28.06;22.64;101563.13;4887307;29;20059;-77
2021/04/04 10:28:43;;;;;;;1.85;1.23;;;;;;;28.90;22.60;101556.53;4888274;29;20021;-79
2021/04/04 10:31:09;;;;;;;9.95;1.70;;;;;;;29.37;21.28;101550.00;4889895;29;20479;-80
2021/04/04 10:33:34;;;;;;;4.18;2.30;;;;;;;29.47;19.16;101547.78;4870605;29;20044;-77
2021/04/04 10:36:14;;;;;;;6.78;2.80;;;;;;;28.93;18.45;101547.34;4889878;29;20036;-79
2021/04/04 10:38:43;;;;;;;6.30;3.03;;;;;;;28.20;19.22;101538.22;4891990;29;20048;-77
2021/04/04 10:41:09;;;;;;;3.80;1.17;;;;;;;28.62;20.39;101537.75;4877503;29;20039;-78
2021/04/04 10:43:44;;;;;;;3.28;1.85;;;;;;;29.28;20.02;101545.75;4886430;29;20074;-78
2021/04/04 10:46:17;;;;;;;3.15;2.13;;;;;;;30.08;19.39;101532.97;4889381;29;20044;-76
2021/04/04 10:48:48;;;;;;;3.58;2.17;;;;;;;30.37;18.23;101538.31;4880048;29;20028;-74
2021/04/04 10:51:21;;;;;;;5.90;2.00;;;;;;;30.59;18.39;101546.00;4881477;29;20427;-75
2021/04/04 10:53:48;;;;;;;9.13;1.50;;;;;;;31.04;17.87;101526.56;4876675;29;20095;-74
2021/04/04 10:56:17;;;;;;;1.20;1.08;;;;;;;31.54;18.51;101539.75;4862717;29;20099;-74
2021/04/04 10:58:51;;;;;;;2.05;1.33;;;;;;;32.12;18.04;101525.13;4852857;29;20033;-78
2021/04/04 11:01:19;;;;;;;3.28;1.98;;;;;;;32.63;16.42;101531.28;4887824;29;20029;-75
2021/04/04 11:03:52;;;;;;;3.78;0.90;;;;;;;33.04;17.67;101531.19;4859814;29;20047;-73
2021/04/04 11:06:17;;;;;;;5.28;1.83;;;;;;;33.52;16.30;101538.78;4880636;29;20036;-75
2021/04/04 11:08:43;;;;;;;2.50;1.92;;;;;;;33.73;15.39;101538.88;4883535;29;20032;-73
2021/04/04 11:11:12;;;;;;;9.27;3.30;;;;;;;32.85;14.34;101535.91;4874511;29;20029;-76
2021/04/04 11:13:41;;;;;;;7.85;3.33;;;;;;;32.15;14.73;101518.69;4887053;29;20476;-77
2021/04/04 11:16:09;;;;;;;17.20;3.20;;;;;;;31.43;15.10;101515.00;4885351;29;20057;-75
2021/04/04 11:18:41;;;;;;;9.77;3.00;;;;;;;30.83;15.65;101506.47;4894476;29;20060;-75
2021/04/04 11:21:10;;;;;;;3.85;2.10;;;;;;;31.08;16.65;101499.19;4883580;29;20713;-74
2021/04/04 11:23:37;;;;;;;2.58;1.77;;;;;;;31.86;16.45;101486.44;4893725;29;20147;-76
2021/04/04 11:26:25;;;;;;;3.05;1.70;;;;;;;32.79;16.38;101497.03;4864606;29;20047;-76
2021/04/04 11:29:08;;;;;;;2.30;1.35;;;;;;;33.69;16.11;101501.16;4902231;29;20037;-76
2021/04/04 11:31:40;;;;;;;2.90;1.10;;;;;;;34.48;16.27;101485.50;4897870;29;20060;-75
2021/04/04 11:35:06;;;;;;;5.88;3.15;;;;;;;34.95;13.20;101481.41;4888060;29;20160;-76
2021/04/04 11:37:34;;;;;;;3.55;2.80;;;;;;;33.57;13.36;101488.16;4859629;29;20128;-77
2021/04/04 11:40:19;;;;;;;4.55;2.65;;;;;;;33.41;13.58;101479.19;4859362;29;20388;-75
2021/04/04 11:43:11;;;;;;;3.75;1.95;;;;;;;33.36;14.63;101477.53;4871355;29;20032;-74
2021/04/04 11:45:41;;;;;;;9.07;2.90;;;;;;;33.89;14.45;101484.63;4896199;29;20036;-77
2021/04/04 11:48:28;;;;;;;9.50;2.03;;;;;;;34.85;13.79;101487.13;4872815;29;20040;-75
2021/04/04 11:50:54;;;;;;;8.80;2.80;;;;;;;34.88;13.62;101470.06;4884627;29;20175;-76
2021/04/04 11:53:40;;;;;;;1.92;1.63;;;;;;;35.62;13.78;101478.75;4892719;29;20033;-76
2021/04/04 11:56:08;;;;;;;1.67;1.40;;;;;;;36.45;14.01;101474.53;4877003;29;20032;-77
2021/04/04 11:58:34;;;;;;;6.88;2.33;;;;;;;37.08;12.46;101468.63;4879819;29;20032;-76